Terminal Aerodrome Forecast
Issued by NWS

Home | Current Version | Previous Version | Text Only | Print | Product List | Glossary On
Versions: 1 2 3 4 5 6 7 8 9 10 11 12 13 14 15 16 17 18 19 20 21 22 23 24 25 26 27 28 29 30 31 32 33 34 35 36 37 38 39 40 41
000
FTUS45 KBOU 271457 AAA
TAFAPA
TAF AMD
KAPA 271457Z 2715/2812 15006KT P6SM FEW150 SCT220
     FM271900 15010KT P6SM FEW100 BKN200
     FM280000 17013KT P6SM VCSH BKN090
      TEMPO 2801/2805 -SHRA BKN060
     FM280500 14008KT P6SM VCSH SCT060 BKN090=

USA.gov is the U.S. government's official web portal to all federal, state and local government web resources and services.